Jellico, TN (37762)

6:16 AM EDT on July 24, 2016 (GMT -0400)
Logan Branch | | Change Station

Elev 955 ft 36.78 °N, 83.96 °W | Updated 1 minute ago

Overcast
Overcast
72.0 °F
Feels Like 72.0 °F
N
0.0
Wind Variable Wind from SSW

Today
High -- | Low -- °F
--% Chance of Precip.
Yesterday
High -- | Low -- °F
Precip. -- in
Pressure 30.07 in
Visibility 5.0 miles
Clouds Overcast 200 ft
Dew Point 70 °F
Humidity 92%
Rainfall 0.00 in
Snow Depth Not available.
6:36 AM 8:48 PM
Waning Gibbous, 77% visible
METAR K1A6 240955Z AUTO 00000KT 5SM BR OVC002 22/22 A3007 RMK AO2 T02150215
Pressure 30.07 in
Visibility 5.0 miles
Clouds Overcast 200 ft
Dew Point 70 °F
Humidity 92%
Rainfall 0.00 in
Snow Depth Not available.
6:36 AM 8:48 PM
Waning Gibbous, 77% visible
METAR K1A6 240955Z AUTO 00000KT 5SM BR OVC002 22/22 A3007 RMK AO2 T02150215

10-Day Weather Forecast

Almanac

Astronomy

Jul. 24, 2016 Rise Set
Actual Time
Civil Twilight
Nautical Twilight
Astronomical Twilight
Moon
Length of Visible Light
Length of Day
Tomorrow will be .
, % of the Moon is Illuminated

Today's Extremes

State Highs State Lows

Community

WunderPhotos

Upload Photos

1,927,040 photos uploaded!

WunderBlog® & News

Nearby

Air Quality

  Air Quality AQ Index Pollutant
Not available.

Snow Depth

Station Depth Elevation

Earthquake Activity

City Distance Mag. Time & Date
Minimum magnitude displayed is 2.5.

Coastal Water Temperatures

Place Temperature

Stations

Nearby Weather Stations

Station Location Temp. Windchill Dew Point Humidity Wind Precip. Elev Updated Type
                   

Watches & Warnings

There are currently no watches in effect.